Time;durP1;ratioP1;P1;durP2;ratioP2;P2;SDS_P1;SDS_P2;PMS_P1;PMS_P2;Temp;Humidity;BMP_temperature;BMP_pressure;BME280_temperature;BME280_humidity;BME280_pressure;Samples;Min_cycle;Max_cycle;Signal;HPM_P1;HPM_P2
2021/12/17 00:01:07;;;;;;;43.05;31.50;;;;;;;-145.45;100.00;62759.84;5221143;28;20547;-88
2021/12/17 00:03:49;;;;;;;43.85;33.10;;;;;;;-145.45;100.00;62759.84;5217028;28;20125;-87
2021/12/17 00:08:56;;;;;;;70.80;42.70;;;;;;;-145.45;100.00;62759.84;5222667;28;20499;-88
2021/12/17 00:11:28;;;;;;;49.35;34.85;;;;;;;-145.45;100.00;62759.84;5195064;28;20097;-87
2021/12/17 00:14:02;;;;;;;51.60;35.83;;;;;;;-145.45;100.00;62759.84;5213919;28;20113;-88
2021/12/17 00:16:38;;;;;;;47.05;33.20;;;;;;;-145.45;100.00;62759.84;5223817;28;20034;-88
2021/12/17 00:19:30;;;;;;;65.73;41.97;;;;;;;-145.45;100.00;62759.84;5222500;28;20035;-88
2021/12/17 00:50:11;;;;;;;48.70;33.92;;;;;;;-145.45;100.00;62759.84;5222015;28;20049;-87
2021/12/17 00:52:42;;;;;;;49.08;35.35;;;;;;;-145.45;100.00;62759.84;5221051;28;20492;-87
2021/12/17 00:55:14;;;;;;;46.15;33.53;;;;;;;-145.45;100.00;62759.84;5224309;28;20019;-88
2021/12/17 00:57:46;;;;;;;46.10;33.30;;;;;;;-145.45;100.00;62759.84;5203485;28;20368;-88
2021/12/17 01:00:21;;;;;;;43.35;31.73;;;;;;;-145.45;100.00;62759.84;5204904;28;20069;-88
2021/12/17 01:02:52;;;;;;;51.20;35.13;;;;;;;-145.45;100.00;62759.84;5220512;28;20104;-88
2021/12/17 01:05:29;;;;;;;47.88;34.60;;;;;;;-145.45;100.00;62759.84;5218510;28;20038;-87
2021/12/17 01:08:03;;;;;;;65.82;41.47;;;;;;;-145.45;100.00;62759.84;5222007;28;20022;-87
2021/12/17 01:10:48;;;;;;;62.85;40.50;;;;;;;-145.45;100.00;62759.84;5236331;28;20103;-88
2021/12/17 01:13:20;;;;;;;55.45;36.95;;;;;;;-145.45;100.00;62759.84;5238783;28;20507;-87
2021/12/17 01:15:52;;;;;;;53.88;37.00;;;;;;;-145.45;100.00;62759.84;5233530;28;20073;-88
2021/12/17 01:18:36;;;;;;;53.90;37.05;;;;;;;-145.45;100.00;62759.84;5235937;28;20010;-88
2021/12/17 01:35:28;;;;;;;43.75;31.95;;;;;;;-145.45;100.00;62759.84;5245301;28;20042;-87
2021/12/17 01:43:58;;;;;;;44.15;30.67;;;;;;;-145.45;100.00;62759.84;5223177;28;20046;-87
2021/12/17 01:46:32;;;;;;;42.55;30.40;;;;;;;-145.45;100.00;62759.84;5216551;28;20094;-87
2021/12/17 02:00:11;;;;;;;43.85;30.83;;;;;;;-145.45;100.00;62759.84;5218182;28;20066;-88
2021/12/17 02:02:55;;;;;;;59.38;37.30;;;;;;;-145.45;100.00;62759.84;5219900;28;20097;-88
2021/12/17 02:05:27;;;;;;;50.00;32.80;;;;;;;-145.45;100.00;62759.84;5216148;28;20030;-88
2021/12/17 02:07:59;;;;;;;59.38;35.40;;;;;;;-145.45;100.00;62759.84;5230767;28;20018;-88
2021/12/17 02:30:19;;;;;;;45.08;31.13;;;;;;;-145.45;100.00;62759.84;5218281;28;20042;-87
2021/12/17 02:32:50;;;;;;;42.70;30.92;;;;;;;-145.45;100.00;62759.84;5222097;28;20428;-87
2021/12/17 02:37:54;;;;;;;42.67;30.55;;;;;;;-145.45;100.00;62759.84;5221084;28;20060;-87
2021/12/17 02:45:54;;;;;;;56.90;35.47;;;;;;;-145.45;100.00;62759.84;5219679;28;20545;-86
2021/12/17 02:48:25;;;;;;;54.30;33.53;;;;;;;-145.45;100.00;62759.84;5220195;28;20117;-87
2021/12/17 02:50:58;;;;;;;56.60;34.45;;;;;;;-145.45;100.00;62759.84;5202746;28;20127;-87
2021/12/17 02:53:30;;;;;;;59.00;34.85;;;;;;;-145.45;100.00;62759.84;5220187;28;20030;-87
2021/12/17 02:56:07;;;;;;;60.85;35.15;;;;;;;-145.45;100.00;62759.84;5220433;28;20026;-87
2021/12/17 02:58:38;;;;;;;65.32;36.63;;;;;;;-145.45;100.00;62759.84;5203919;28;20094;-87
2021/12/17 03:01:12;;;;;;;72.97;38.03;;;;;;;-145.45;100.00;62759.84;5221366;28;20498;-87
2021/12/17 03:03:48;;;;;;;70.32;38.78;;;;;;;-145.45;100.00;62759.84;5223561;28;20046;-86
2021/12/17 03:06:19;;;;;;;74.47;40.27;;;;;;;-145.45;100.00;62759.84;5197019;28;20098;-87
2021/12/17 03:08:51;;;;;;;81.32;40.58;;;;;;;-145.45;100.00;62759.84;5225264;28;20373;-87
2021/12/17 03:11:22;;;;;;;83.18;40.17;;;;;;;-145.45;100.00;62759.84;5223817;28;20106;-87
2021/12/17 03:13:53;;;;;;;86.25;42.22;;;;;;;-145.45;100.00;62759.84;5224548;28;20026;-87
2021/12/17 03:16:37;;;;;;;81.30;39.42;;;;;;;-145.45;100.00;62759.84;5221915;28;20030;-87
2021/12/17 03:19:26;;;;;;;83.43;40.42;;;;;;;-145.45;100.00;62759.84;5241026;28;20027;-87
2021/12/17 03:24:47;;;;;;;91.60;42.90;;;;;;;-145.45;100.00;62759.84;5240661;28;20023;-87
2021/12/17 03:27:19;;;;;;;91.05;42.15;;;;;;;-145.45;100.00;62759.84;5243488;28;20037;-87
2021/12/17 03:29:50;;;;;;;94.97;42.33;;;;;;;-145.45;100.00;62759.84;5208155;28;20078;-87
2021/12/17 03:32:21;;;;;;;94.07;44.80;;;;;;;-145.45;100.00;62759.84;5224502;28;20038;-87
2021/12/17 03:34:52;;;;;;;98.15;43.53;;;;;;;-145.45;100.00;62759.84;5211429;28;20027;-87
2021/12/17 03:37:24;;;;;;;103.95;44.65;;;;;;;-145.45;100.00;62759.84;5223435;28;20727;-87
2021/12/17 03:39:55;;;;;;;108.47;41.78;;;;;;;-145.45;100.00;62759.84;5206251;28;20038;-87
2021/12/17 03:42:26;;;;;;;104.15;43.53;;;;;;;-145.45;100.00;62759.84;5224349;28;20436;-87
2021/12/17 03:44:57;;;;;;;118.18;44.47;;;;;;;-145.45;100.00;62759.84;5219995;28;20558;-87
2021/12/17 03:47:29;;;;;;;121.53;44.72;;;;;;;-145.45;100.00;62759.84;5221939;28;20143;-87
2021/12/17 03:50:00;;;;;;;120.05;43.05;;;;;;;-145.45;100.00;62759.84;5206411;28;20033;-87
2021/12/17 03:52:31;;;;;;;121.15;42.70;;;;;;;-145.45;100.00;62759.84;5225515;28;20033;-87
2021/12/17 03:55:04;;;;;;;131.00;44.25;;;;;;;-145.45;100.00;62759.84;5214438;28;20028;-87
2021/12/17 03:57:36;;;;;;;128.45;41.45;;;;;;;-145.45;100.00;62759.84;5223045;28;20034;-87
2021/12/17 04:00:10;;;;;;;117.13;40.53;;;;;;;-145.45;100.00;62759.84;5228710;28;20033;-87
2021/12/17 04:02:41;;;;;;;117.18;40.40;;;;;;;-145.45;100.00;62759.84;5222987;28;20047;-87
2021/12/17 04:05:12;;;;;;;118.15;41.28;;;;;;;-145.45;100.00;62759.84;5217169;28;20352;-87
2021/12/17 04:07:44;;;;;;;129.55;42.33;;;;;;;-145.45;100.00;62759.84;5217841;28;20029;-87
2021/12/17 04:10:18;;;;;;;121.18;39.58;;;;;;;-145.45;100.00;62759.84;5216938;28;20041;-87
2021/12/17 04:13:04;;;;;;;141.10;41.90;;;;;;;-145.45;100.00;62759.84;5203517;28;20034;-87
2021/12/17 04:15:37;;;;;;;146.50;43.50;;;;;;;-145.45;100.00;62759.84;5201245;28;20050;-87
2021/12/17 04:18:10;;;;;;;127.78;40.10;;;;;;;-145.45;100.00;62759.84;5219318;28;20101;-87
2021/12/17 04:20:41;;;;;;;145.00;42.40;;;;;;;-145.45;100.00;62759.84;5216327;28;20490;-87
2021/12/17 04:23:13;;;;;;;161.35;46.45;;;;;;;-145.45;100.00;62759.84;5221774;28;20019;-87
2021/12/17 04:25:44;;;;;;;151.18;41.97;;;;;;;-145.45;100.00;62759.84;5223241;28;20018;-87
2021/12/17 04:28:16;;;;;;;171.07;45.35;;;;;;;-145.45;100.00;62759.84;5220307;28;20479;-87
2021/12/17 04:30:48;;;;;;;162.23;46.28;;;;;;;-145.45;100.00;62759.84;5222035;28;20030;-87
2021/12/17 04:33:19;;;;;;;153.05;46.40;;;;;;;-145.45;100.00;62759.84;5198827;28;20030;-87
2021/12/17 04:35:51;;;;;;;165.70;48.35;;;;;;;-145.45;100.00;62759.84;5216618;28;20057;-87
2021/12/17 04:38:23;;;;;;;150.35;41.38;;;;;;;-145.45;100.00;62759.84;5221670;28;20034;-87
2021/12/17 04:40:56;;;;;;;161.40;45.15;;;;;;;-145.45;100.00;62759.84;5221882;28;20042;-87
2021/12/17 04:43:42;;;;;;;169.30;46.95;;;;;;;-145.45;100.00;62759.84;5221107;28;20026;-87
2021/12/17 04:57:28;;;;;;;168.35;49.30;;;;;;;-145.45;100.00;62759.84;5215851;28;20038;-87
2021/12/17 05:00:11;;;;;;;159.55;42.75;;;;;;;-145.45;100.00;62759.84;5214584;28;20047;-87
2021/12/17 05:02:47;;;;;;;177.80;42.72;;;;;;;-145.45;100.00;62759.84;5193239;28;20048;-87
2021/12/17 05:05:21;;;;;;;176.27;44.63;;;;;;;-145.45;100.00;62759.84;5220836;28;20034;-88
2021/12/17 05:07:57;;;;;;;271.65;51.13;;;;;;;-145.45;100.00;62759.84;5204329;28;20022;-88
2021/12/17 05:18:55;;;;;;;203.40;45.03;;;;;;;-145.45;100.00;62759.84;5227072;28;20030;-87
2021/12/17 05:21:27;;;;;;;181.98;46.83;;;;;;;-145.45;100.00;62759.84;5200421;28;20117;-88
2021/12/17 05:23:58;;;;;;;215.98;50.05;;;;;;;-145.45;100.00;62759.84;5221163;28;20389;-88
2021/12/17 05:26:29;;;;;;;170.90;45.33;;;;;;;-145.45;100.00;62759.84;5221717;28;20105;-88
2021/12/17 05:29:01;;;;;;;147.43;38.63;;;;;;;-145.45;100.00;62759.84;5200713;28;20022;-88
2021/12/17 05:31:32;;;;;;;141.80;37.88;;;;;;;-145.45;100.00;62759.84;5230428;28;20104;-88
2021/12/17 05:34:03;;;;;;;139.60;37.17;;;;;;;-145.45;100.00;62759.84;5229600;28;20081;-87
2021/12/17 05:36:35;;;;;;;152.77;37.90;;;;;;;-145.45;100.00;62759.84;5229763;28;20046;-88
2021/12/17 05:39:06;;;;;;;157.52;38.78;;;;;;;-145.45;100.00;62759.84;5242826;28;20054;-87
2021/12/17 05:41:37;;;;;;;132.55;35.65;;;;;;;-145.45;100.00;62759.84;5235397;28;20026;-88
2021/12/17 05:44:09;;;;;;;150.13;39.92;;;;;;;-145.45;100.00;62759.84;5239194;28;20022;-88
2021/12/17 05:46:50;;;;;;;142.10;38.63;;;;;;;-145.45;100.00;62759.84;5239050;28;20033;-87
2021/12/17 05:49:24;;;;;;;159.18;39.30;;;;;;;-145.45;100.00;62759.84;5218652;28;20149;-88
2021/12/17 05:51:55;;;;;;;153.40;40.15;;;;;;;-145.45;100.00;62759.84;5221706;28;20026;-88
2021/12/17 05:54:26;;;;;;;157.20;38.65;;;;;;;-145.45;100.00;62759.84;5220566;28;21038;-88
2021/12/17 05:56:57;;;;;;;153.25;39.78;;;;;;;-145.45;100.00;62759.84;5221019;28;20011;-88
2021/12/17 05:59:34;;;;;;;150.57;38.03;;;;;;;-145.45;100.00;62759.84;5221068;28;20481;-87
2021/12/17 06:02:10;;;;;;;127.22;35.63;;;;;;;-145.45;100.00;62759.84;5220029;28;20041;-88
2021/12/17 06:04:42;;;;;;;148.88;35.55;;;;;;;-145.45;100.00;62759.84;5182710;28;20385;-88
2021/12/17 06:07:13;;;;;;;121.38;32.58;;;;;;;-145.45;100.00;62759.84;5200753;28;20015;-87
2021/12/17 06:09:45;;;;;;;147.60;36.88;;;;;;;-145.45;100.00;62759.84;5215107;28;20126;-88
2021/12/17 06:12:17;;;;;;;179.15;35.85;;;;;;;-145.45;100.00;62759.84;5215617;28;20114;-88
2021/12/17 06:14:48;;;;;;;161.88;37.33;;;;;;;-145.45;100.00;62759.84;5200547;28;20123;-88
2021/12/17 06:17:19;;;;;;;153.60;39.30;;;;;;;-145.45;100.00;62759.84;5200646;28;20061;-88
2021/12/17 06:19:51;;;;;;;158.23;39.13;;;;;;;-145.45;100.00;62759.84;5215914;28;20035;-88
2021/12/17 06:22:22;;;;;;;141.45;37.63;;;;;;;-145.45;100.00;62759.84;5199913;28;20470;-88
2021/12/17 06:24:53;;;;;;;137.40;36.58;;;;;;;-145.45;100.00;62759.84;5199760;28;20057;-87
2021/12/17 06:27:25;;;;;;;174.38;35.53;;;;;;;-145.45;100.00;62759.84;5199547;28;20022;-87
2021/12/17 06:29:57;;;;;;;127.13;34.05;;;;;;;-145.45;100.00;62759.84;5199591;28;20117;-88
2021/12/17 06:32:29;;;;;;;146.70;34.15;;;;;;;-145.45;100.00;62759.84;5184057;28;20031;-88
2021/12/17 06:35:00;;;;;;;141.38;36.90;;;;;;;-145.45;100.00;62759.84;5203919;28;20455;-88
2021/12/17 06:37:36;;;;;;;157.40;33.83;;;;;;;-145.45;100.00;62759.84;5204119;28;20038;-88
2021/12/17 06:40:08;;;;;;;137.90;37.65;;;;;;;-145.45;100.00;62759.84;5204323;28;20078;-88
2021/12/17 06:42:40;;;;;;;128.50;33.47;;;;;;;-145.45;100.00;62759.84;5186102;28;20041;-88
2021/12/17 06:45:20;;;;;;;138.57;35.65;;;;;;;-145.45;100.00;62759.84;5204400;28;20114;-88
2021/12/17 06:47:58;;;;;;;139.55;37.00;;;;;;;-145.45;100.00;62759.84;5203873;28;20106;-88
2021/12/17 07:08:07;;;;;;;118.30;30.30;;;;;;;-145.45;100.00;62759.84;5225399;28;20014;-89
2021/12/17 07:10:30;;;;;;;110.30;29.90;;;;;;;-145.45;100.00;62759.84;5224750;28;20042;-88
2021/12/17 07:33:16;;;;;;;98.05;25.38;;;;;;;-145.45;100.00;62759.84;5244703;28;20394;-87
2021/12/17 07:35:53;;;;;;;97.93;24.90;;;;;;;-145.45;100.00;62759.84;5228608;28;20030;-87
2021/12/17 07:41:15;;;;;;;99.38;25.90;;;;;;;-145.45;100.00;62759.84;5250988;28;20026;-88
2021/12/17 07:43:54;;;;;;;85.85;23.80;;;;;;;-145.45;100.00;62759.84;5231457;28;20080;-87
2021/12/17 07:46:26;;;;;;;112.63;26.42;;;;;;;-145.45;100.00;62759.84;5251183;28;20109;-87
2021/12/17 07:48:57;;;;;;;117.30;25.88;;;;;;;-145.45;100.00;62759.84;5258949;28;20049;-87
2021/12/17 07:51:29;;;;;;;129.43;26.85;;;;;;;-145.45;100.00;62759.84;5257560;28;20031;-87
2021/12/17 07:54:00;;;;;;;98.43;26.90;;;;;;;-145.45;100.00;62759.84;5238912;28;20030;-87
2021/12/17 07:56:37;;;;;;;108.68;29.88;;;;;;;-145.45;100.00;62759.84;5245303;28;20105;-88
2021/12/17 07:59:10;;;;;;;103.50;30.05;;;;;;;-145.45;100.00;62759.84;5226272;28;20089;-87
2021/12/17 08:01:42;;;;;;;89.85;28.85;;;;;;;-145.45;100.00;62759.84;5226704;28;20026;-88
2021/12/17 08:04:13;;;;;;;96.38;32.00;;;;;;;-145.45;100.00;62759.84;5225512;28;20049;-87
2021/12/17 08:06:44;;;;;;;100.60;33.10;;;;;;;-145.45;100.00;62759.84;5223582;28;20042;-88
2021/12/17 08:09:16;;;;;;;78.47;29.67;;;;;;;-145.45;100.00;62759.84;5224074;28;20069;-87
2021/12/17 08:11:54;;;;;;;91.80;32.30;;;;;;;-145.45;100.00;62759.84;5225739;28;20066;-88
2021/12/17 08:14:28;;;;;;;89.80;32.05;;;;;;;-145.45;100.00;62759.84;5231993;28;20027;-88
2021/12/17 08:17:28;;;;;;;91.43;32.70;;;;;;;-145.45;100.00;62759.84;5223591;28;20725;-88
2021/12/17 08:31:44;;;;;;;90.35;34.20;;;;;;;-145.45;100.00;62759.84;5166636;28;20035;-88
2021/12/17 08:34:15;;;;;;;71.07;30.45;;;;;;;-145.45;100.00;62759.84;5198612;28;20089;-87
2021/12/17 08:36:46;;;;;;;78.03;33.63;;;;;;;-145.45;100.00;62759.84;5220015;28;20086;-88
2021/12/17 08:39:18;;;;;;;81.35;33.25;;;;;;;-145.45;100.00;62759.84;5226788;28;20062;-87
2021/12/17 08:41:52;;;;;;;70.47;31.92;;;;;;;-145.45;100.00;62759.84;5225987;28;31892;-87
2021/12/17 08:44:23;;;;;;;96.85;33.80;;;;;;;-145.45;100.00;62759.84;5227240;28;20082;-87
2021/12/17 08:46:54;;;;;;;91.10;34.08;;;;;;;-145.45;100.00;62759.84;5225933;28;34996;-87
2021/12/17 08:49:26;;;;;;;80.53;33.75;;;;;;;-145.45;100.00;62759.84;5192319;28;20200;-87
2021/12/17 08:51:58;;;;;;;78.95;33.40;;;;;;;-145.45;100.00;62759.84;5210320;28;20078;-88
2021/12/17 08:54:29;;;;;;;88.15;34.05;;;;;;;-145.45;100.00;62759.84;5208514;28;20037;-88
2021/12/17 08:57:01;;;;;;;76.25;32.28;;;;;;;-145.45;100.00;62759.84;5205410;28;20043;-88
2021/12/17 08:59:33;;;;;;;77.22;31.65;;;;;;;-145.45;100.00;62759.84;5202434;28;20027;-87
2021/12/17 09:02:05;;;;;;;80.90;32.15;;;;;;;-145.45;100.00;62759.84;5202321;28;20034;-88
2021/12/17 09:04:36;;;;;;;76.22;30.67;;;;;;;-145.45;100.00;62759.84;5209217;28;20129;-87
2021/12/17 09:07:07;;;;;;;80.07;32.85;;;;;;;-145.45;100.00;62759.84;5221537;28;20117;-87
2021/12/17 09:09:39;;;;;;;92.38;33.00;;;;;;;-145.45;100.00;62759.84;5221947;28;20376;-87
2021/12/17 09:12:11;;;;;;;70.22;28.02;;;;;;;-145.45;100.00;62759.84;5206343;28;20376;-88
2021/12/17 09:14:42;;;;;;;82.88;30.85;;;;;;;-145.45;100.00;62759.84;5220260;28;20032;-87
2021/12/17 09:17:14;;;;;;;66.70;28.98;;;;;;;-145.45;100.00;62759.84;5220973;28;20085;-87
2021/12/17 09:19:45;;;;;;;72.50;28.35;;;;;;;-145.45;100.00;62759.84;5221262;28;20019;-87
2021/12/17 09:22:17;;;;;;;89.03;30.48;;;;;;;-145.45;100.00;62759.84;5203629;28;20023;-87
2021/12/17 09:24:48;;;;;;;77.72;31.95;;;;;;;-145.45;100.00;62759.84;5220969;28;20053;-87
2021/12/17 09:27:20;;;;;;;69.97;28.85;;;;;;;-145.45;100.00;62759.84;5206975;28;20028;-87
2021/12/17 09:29:51;;;;;;;66.43;28.23;;;;;;;-145.45;100.00;62759.84;5228892;28;20113;-87
2021/12/17 09:32:23;;;;;;;65.35;27.42;;;;;;;-145.45;100.00;62759.84;5199767;28;20026;-87
2021/12/17 09:34:54;;;;;;;67.57;28.23;;;;;;;-145.45;100.00;62759.84;5220813;28;20106;-87
2021/12/17 09:37:26;;;;;;;70.30;28.27;;;;;;;-145.45;100.00;62759.84;5202814;28;20090;-87
2021/12/17 09:39:57;;;;;;;74.80;31.83;;;;;;;-145.45;100.00;62759.84;5202982;28;20121;-87
2021/12/17 09:42:28;;;;;;;66.00;28.90;;;;;;;-145.45;100.00;62759.84;5203233;28;20022;-87
2021/12/17 09:45:01;;;;;;;63.50;27.75;;;;;;;-145.45;100.00;62759.84;5220744;28;20026;-86
2021/12/17 09:47:32;;;;;;;69.13;28.25;;;;;;;-145.45;100.00;62759.84;5212727;28;20022;-87
2021/12/17 09:50:05;;;;;;;71.85;29.05;;;;;;;-145.45;100.00;62759.84;5226724;28;20033;-86
2021/12/17 09:52:36;;;;;;;67.78;29.30;;;;;;;-145.45;100.00;62759.84;5231669;28;20126;-87
2021/12/17 09:55:09;;;;;;;73.13;30.60;;;;;;;-145.45;100.00;62759.84;5226939;28;20049;-87
2021/12/17 09:57:40;;;;;;;64.70;28.67;;;;;;;-145.45;100.00;62759.84;5226745;28;20026;-87
2021/12/17 10:00:16;;;;;;;70.63;29.83;;;;;;;-145.45;100.00;62759.84;5222292;28;20083;-87
2021/12/17 10:02:49;;;;;;;68.47;28.15;;;;;;;-145.45;100.00;62759.84;5220666;28;20620;-87
2021/12/17 10:05:23;;;;;;;72.10;28.35;;;;;;;-145.45;100.00;62759.84;5219969;28;20034;-86
2021/12/17 10:07:57;;;;;;;70.25;30.17;;;;;;;-145.45;100.00;62759.84;5202215;28;20019;-87
2021/12/17 10:10:36;;;;;;;71.05;29.60;;;;;;;-145.45;100.00;62759.84;5219969;28;20045;-87
2021/12/17 10:13:20;;;;;;;65.53;29.13;;;;;;;-145.45;100.00;62759.84;5219494;28;20031;-87
2021/12/17 10:15:58;;;;;;;67.25;28.23;;;;;;;-145.45;100.00;62759.84;5219672;28;20101;-87
2021/12/17 10:18:36;;;;;;;66.40;28.10;;;;;;;-145.45;100.00;62759.84;5199303;28;20034;-87
2021/12/17 10:21:12;;;;;;;65.75;28.15;;;;;;;-145.45;100.00;62759.84;5209289;28;20114;-87
2021/12/17 10:23:44;;;;;;;59.78;25.70;;;;;;;-145.45;100.00;62759.84;5219476;28;20027;-87
2021/12/17 10:26:18;;;;;;;56.42;25.80;;;;;;;-145.45;100.00;62759.84;5220048;28;20076;-87
2021/12/17 10:29:04;;;;;;;61.55;26.65;;;;;;;-145.45;100.00;62759.84;5201992;28;20391;-87
2021/12/17 10:31:37;;;;;;;58.20;25.05;;;;;;;-145.45;100.00;62759.84;5220022;28;20423;-87
2021/12/17 10:34:15;;;;;;;62.22;26.63;;;;;;;-145.45;100.00;62759.84;5220662;28;20026;-88
2021/12/17 10:36:46;;;;;;;61.65;26.63;;;;;;;-145.45;100.00;62759.84;5219822;28;20014;-87
2021/12/17 10:39:21;;;;;;;60.28;24.13;;;;;;;-145.45;100.00;62759.84;5220351;28;20014;-89
2021/12/17 10:41:53;;;;;;;58.65;26.08;;;;;;;-145.45;100.00;62759.84;5219829;28;20320;-88
2021/12/17 10:44:24;;;;;;;54.58;25.15;;;;;;;-145.45;100.00;62759.84;5219840;28;20022;-87
2021/12/17 10:47:29;;;;;;;49.17;23.00;;;;;;;-145.45;100.00;62759.84;5202277;28;20022;-87
2021/12/17 10:50:02;;;;;;;50.15;22.40;;;;;;;-145.45;100.00;62759.84;5219968;28;20030;-88
2021/12/17 10:52:40;;;;;;;57.53;25.65;;;;;;;-145.45;100.00;62759.84;5220020;28;20097;-88
2021/12/17 10:55:15;;;;;;;55.15;23.88;;;;;;;-145.45;100.00;62759.84;5202025;28;20098;-88
2021/12/17 10:57:49;;;;;;;52.45;22.98;;;;;;;-145.45;100.00;62759.84;5219550;28;20467;-88
2021/12/17 11:00:20;;;;;;;44.13;21.02;;;;;;;-145.45;100.00;62759.84;5221595;28;20029;-87
2021/12/17 11:02:53;;;;;;;51.78;20.92;;;;;;;-145.45;100.00;62759.84;5219396;28;41396;-87
2021/12/17 11:05:25;;;;;;;42.42;18.85;;;;;;;-145.45;100.00;62759.84;5220617;28;20076;-87
2021/12/17 11:07:56;;;;;;;43.95;18.45;;;;;;;-145.45;100.00;62759.84;5219780;28;20026;-87
2021/12/17 11:10:31;;;;;;;36.15;15.93;;;;;;;-145.45;100.00;62759.84;5201907;28;20034;-87
2021/12/17 11:13:03;;;;;;;40.63;16.90;;;;;;;-145.45;100.00;62759.84;5219900;28;20023;-89
2021/12/17 11:15:34;;;;;;;38.80;16.05;;;;;;;-145.45;100.00;62759.84;5202047;28;20026;-87
2021/12/17 11:18:06;;;;;;;41.10;16.20;;;;;;;-145.45;100.00;62759.84;5221078;28;20527;-88
2021/12/17 11:20:38;;;;;;;39.45;15.82;;;;;;;-145.45;100.00;62759.84;5223531;28;20025;-89
2021/12/17 11:23:13;;;;;;;37.75;15.18;;;;;;;-145.45;100.00;62759.84;5205347;28;20022;-89
2021/12/17 11:25:50;;;;;;;39.30;16.17;;;;;;;-145.45;100.00;62759.84;5223355;28;20026;-88
2021/12/17 11:28:22;;;;;;;38.63;16.08;;;;;;;-145.45;100.00;62759.84;5216315;28;20030;-88
2021/12/17 11:30:54;;;;;;;35.22;15.88;;;;;;;-145.45;100.00;62759.84;5202641;28;20384;-89
2021/12/17 11:33:25;;;;;;;39.50;16.30;;;;;;;-145.45;100.00;62759.84;5184636;28;20030;-88
2021/12/17 11:35:56;;;;;;;33.22;16.17;;;;;;;-145.45;100.00;62759.84;5185257;28;20022;-87
2021/12/17 11:38:46;;;;;;;36.72;15.82;;;;;;;-145.45;100.00;62759.84;5202520;28;20019;-86
2021/12/17 11:41:26;;;;;;;35.17;15.32;;;;;;;-145.45;100.00;62759.84;5202071;28;20098;-87
2021/12/17 11:44:01;;;;;;;36.10;15.32;;;;;;;-145.45;100.00;62759.84;5223417;28;20022;-87
2021/12/17 11:46:33;;;;;;;34.33;15.82;;;;;;;-145.45;100.00;62759.84;5222227;28;20041;-87
2021/12/17 11:49:15;;;;;;;35.08;16.25;;;;;;;-145.45;100.00;62759.84;5222325;28;20030;-87
2021/12/17 11:51:54;;;;;;;31.10;14.57;;;;;;;-145.45;100.00;62759.84;5222714;28;20022;-86
2021/12/17 11:54:31;;;;;;;32.95;15.40;;;;;;;-145.45;100.00;62759.84;5224428;28;20033;-86
2021/12/17 11:57:09;;;;;;;31.33;14.65;;;;;;;-145.45;100.00;62759.84;5222971;28;20121;-87
2021/12/17 11:59:43;;;;;;;33.08;15.52;;;;;;;-145.45;100.00;62759.84;5222131;28;20488;-87
2021/12/17 12:02:24;;;;;;;34.25;16.38;;;;;;;-145.45;100.00;62759.84;5222990;28;20026;-86
2021/12/17 12:04:57;;;;;;;31.80;15.43;;;;;;;-145.45;100.00;62759.84;5201634;28;20094;-87
2021/12/17 12:07:28;;;;;;;29.52;15.38;;;;;;;-145.45;100.00;62759.84;5184814;28;20126;-86
2021/12/17 12:10:12;;;;;;;31.45;15.68;;;;;;;-145.45;100.00;62759.84;5202049;28;20035;-87
2021/12/17 12:12:45;;;;;;;29.85;14.50;;;;;;;-145.45;100.00;62759.84;5201878;28;20077;-87
2021/12/17 12:15:23;;;;;;;32.75;16.08;;;;;;;-145.45;100.00;62759.84;5202085;28;20046;-87
2021/12/17 12:17:57;;;;;;;25.52;14.80;;;;;;;-145.45;100.00;62759.84;5201793;28;20058;-87
2021/12/17 12:20:47;;;;;;;28.30;14.57;;;;;;;-145.45;100.00;62759.84;5201424;28;20011;-87
2021/12/17 12:23:38;;;;;;;28.63;15.50;;;;;;;-145.45;100.00;62759.84;5206528;28;20026;-87
2021/12/17 12:26:11;;;;;;;26.02;14.50;;;;;;;-145.45;100.00;62759.84;5183917;28;20138;-87
2021/12/17 12:28:49;;;;;;;27.58;14.68;;;;;;;-145.45;100.00;62759.84;5201550;28;20027;-87
2021/12/17 12:31:27;;;;;;;27.52;16.00;;;;;;;-145.45;100.00;62759.84;5200822;28;20027;-87
2021/12/17 12:37:03;;;;;;;33.15;16.98;;;;;;;-145.45;100.00;62759.84;5193350;28;20131;-86
2021/12/17 12:39:52;;;;;;;27.05;15.40;;;;;;;-145.45;100.00;62759.84;5201360;28;20031;-87
2021/12/17 12:42:35;;;;;;;24.05;13.73;;;;;;;-145.45;100.00;62759.84;5201618;28;20022;-87
2021/12/17 12:45:12;;;;;;;24.50;14.32;;;;;;;-145.45;100.00;62759.84;5183456;28;20477;-87
2021/12/17 12:47:50;;;;;;;24.13;14.10;;;;;;;-145.45;100.00;62759.84;5201133;28;20045;-88
2021/12/17 12:50:25;;;;;;;25.00;15.25;;;;;;;-145.45;100.00;62759.84;5183286;28;20484;-87
2021/12/17 12:53:00;;;;;;;25.03;14.53;;;;;;;-145.45;100.00;62759.84;5183383;28;20460;-87
2021/12/17 12:55:38;;;;;;;20.13;11.57;;;;;;;-145.45;100.00;62759.84;5201042;28;20038;-87
2021/12/17 12:58:13;;;;;;;18.27;11.68;;;;;;;-145.45;100.00;62759.84;5201921;28;20019;-87
2021/12/17 13:00:48;;;;;;;22.97;11.60;;;;;;;-145.45;100.00;62759.84;5187540;28;20385;-87
2021/12/17 13:03:26;;;;;;;17.08;10.75;;;;;;;-145.45;100.00;62759.84;5198473;28;20529;-87
2021/12/17 13:05:59;;;;;;;17.48;9.95;;;;;;;-145.45;100.00;62759.84;5221649;28;20185;-87
2021/12/17 13:08:31;;;;;;;14.88;8.98;;;;;;;-145.45;100.00;62759.84;5203823;28;20045;-87
2021/12/17 13:11:06;;;;;;;12.20;8.13;;;;;;;-145.45;100.00;62759.84;5221578;28;20431;-87
2021/12/17 13:14:17;;;;;;;16.80;10.18;;;;;;;-145.45;100.00;62759.84;5220197;28;20511;-87
2021/12/17 13:16:44;;;;;;;18.45;10.90;;;;;;;-145.45;100.00;62759.84;5217769;28;20476;-88
2021/12/17 13:22:27;;;;;;;20.48;12.38;;;;;;;-145.45;100.00;62759.84;5221151;28;20476;-87
2021/12/17 13:24:56;;;;;;;23.27;13.35;;;;;;;-145.45;100.00;62759.84;5220675;28;20026;-88
2021/12/17 13:27:27;;;;;;;18.20;12.05;;;;;;;-145.45;100.00;62759.84;5203595;28;20034;-88
2021/12/17 13:29:58;;;;;;;23.27;13.13;;;;;;;-145.45;100.00;62759.84;5221110;28;20127;-88
2021/12/17 13:32:31;;;;;;;18.13;11.88;;;;;;;-145.45;100.00;62759.84;5221344;28;20031;-87
2021/12/17 13:35:03;;;;;;;20.17;13.35;;;;;;;-145.45;100.00;62759.84;5220992;28;20019;-88
2021/12/17 13:37:34;;;;;;;21.80;13.27;;;;;;;-145.45;100.00;62759.84;5221058;28;20084;-88
2021/12/17 13:40:12;;;;;;;18.70;11.93;;;;;;;-145.45;100.00;62759.84;5220992;28;20019;-89
2021/12/17 13:42:47;;;;;;;20.40;12.52;;;;;;;-145.45;100.00;62759.84;5204021;28;20033;-88
2021/12/17 13:45:23;;;;;;;22.70;13.48;;;;;;;-145.45;100.00;62759.84;5200595;28;20026;-88
2021/12/17 13:47:57;;;;;;;16.13;10.50;;;;;;;-145.45;100.00;62759.84;5200873;28;20022;-89
2021/12/17 13:50:32;;;;;;;15.70;9.32;;;;;;;-145.45;100.00;62759.84;5186795;28;20182;-88
2021/12/17 13:53:10;;;;;;;9.88;7.75;;;;;;;-145.45;100.00;62759.84;5187297;28;20047;-88
2021/12/17 13:55:45;;;;;;;8.63;6.88;;;;;;;-145.45;100.00;62759.84;5188517;28;20038;-87
2021/12/17 13:58:20;;;;;;;9.27;6.20;;;;;;;-145.45;100.00;62759.84;5218581;28;20019;-89
2021/12/17 14:00:57;;;;;;;9.77;7.20;;;;;;;-145.45;100.00;62759.84;5238589;28;20518;-88
2021/12/17 14:03:33;;;;;;;8.43;6.90;;;;;;;-145.45;100.00;62759.84;5235462;28;20062;-88
2021/12/17 14:06:18;;;;;;;7.65;6.35;;;;;;;-145.45;100.00;62759.84;5238032;28;20031;-89
2021/12/17 14:08:51;;;;;;;8.25;6.45;;;;;;;-145.45;100.00;62759.84;5228234;28;20427;-87
2021/12/17 14:11:29;;;;;;;8.13;6.15;;;;;;;-145.45;100.00;62759.84;5221418;28;20035;-87
2021/12/17 14:14:00;;;;;;;5.90;5.28;;;;;;;-145.45;100.00;62759.84;5220436;28;20132;-87